« Back
NWS Peachtree City, Ga » Text Product » MCN Terminal Aerodrome Forecast


Printer-friendly Version
Current Version              Previous Versions:   1  2  3  4  5  6  7  8  9  

Terminal Aerodrome Forecast

358
FTUS42 KFFC 290935 AAA
TAFMCN
TAF AMD
KMCN 290935Z 2910/3006 VRB03KT 1SM BR SCT006
      TEMPO 2910/2912 1/4SM FG BKN005
     FM291200 00000KT 3SM BR FEW250
     FM291400 33003KT P6SM FEW250
     FM291500 01003KT P6SM FEW045
     FM300100 00000KT P6SM SKC=



USA.gov is the U.S. government's official web portal to all federal, state and local government web resources and services.